Time;durP1;ratioP1;P1;durP2;ratioP2;P2;SDS_P1;SDS_P2;PMS_P1;PMS_P2;Temp;Humidity;BMP_temperature;BMP_pressure;BME280_temperature;BME280_humidity;BME280_pressure;Samples;Min_cycle;Max_cycle;Signal;HPM_P1;HPM_P2
2021/04/13 00:02:15;;;;;;;3.53;1.67;;;4.40;79.20;;;;;;3577135;40;20087;-71
2021/04/13 00:04:41;;;;;;;3.03;1.60;;;4.40;79.20;;;;;;3581215;40;20041;-71
2021/04/13 00:07:07;;;;;;;3.70;1.92;;;4.40;79.10;;;;;;3582892;39;20021;-71
2021/04/13 00:09:34;;;;;;;6.07;2.05;;;4.40;79.30;;;;;;3581294;40;20405;-71
2021/04/13 00:12:11;;;;;;;2.30;1.88;;;4.30;79.60;;;;;;3581715;40;20047;-71
2021/04/13 00:14:39;;;;;;;;;;;4.30;79.60;;;;;;3581695;40;20044;-71
2021/04/13 00:17:09;;;;;;;3.00;1.80;;;4.30;80.00;;;;;;3583711;40;19932;-71
2021/04/13 00:19:57;;;;;;;3.42;1.70;;;4.20;80.20;;;;;;3584518;39;20052;-71
2021/04/13 00:22:23;;;;;;;2.13;1.80;;;4.20;80.00;;;;;;3586870;40;20036;-63
2021/04/13 00:24:50;;;;;;;3.13;1.70;;;4.20;79.60;;;;;;3583448;40;20032;-63
2021/04/13 00:27:16;;;;;;;2.13;1.92;;;4.10;79.90;;;;;;3585077;40;20391;-63
2021/04/13 00:29:42;;;;;;;4.57;2.10;;;4.10;79.90;;;;;;3583748;39;20028;-68
2021/04/13 00:32:10;;;;;;;2.28;1.77;;;4.10;79.60;;;;;;3584430;40;20401;-68
2021/04/13 00:34:54;;;;;;;4.90;2.42;;;4.10;79.80;;;;;;3584287;40;20105;-68
2021/04/13 00:37:30;;;;;;;4.43;2.15;;;4.00;80.00;;;;;;3583066;40;20040;-68
2021/04/13 00:40:12;;;;;;;3.83;2.10;;;4.00;80.80;;;;;;3583500;39;20044;-71
2021/04/13 00:42:39;;;;;;;4.13;2.00;;;3.90;79.90;;;;;;3586368;39;20044;-71
2021/04/13 00:45:13;;;;;;;4.43;2.00;;;3.90;80.30;;;;;;3582049;40;20094;-71
2021/04/13 00:47:42;;;;;;;3.08;1.85;;;3.90;80.40;;;;;;3584369;39;20031;-71
2021/04/13 00:50:14;;;;;;;3.00;2.08;;;3.80;80.60;;;;;;3580935;40;20041;-71
2021/04/13 00:52:46;;;;;;;2.20;2.00;;;3.80;81.00;;;;;;3582518;40;20428;-70
2021/04/13 00:55:14;;;;;;;3.67;1.92;;;3.80;81.00;;;;;;3580447;40;20100;-71
2021/04/13 00:57:47;;;;;;;3.78;2.10;;;3.80;80.70;;;;;;3584536;39;20032;-71
2021/04/13 01:00:22;;;;;;;3.60;2.50;;;3.70;80.80;;;;;;3582618;40;20750;-68
2021/04/13 01:02:48;;;;;;;4.70;2.20;;;3.70;80.90;;;;;;3581260;39;20054;-71
2021/04/13 01:05:20;;;;;;;3.13;2.00;;;3.70;80.60;;;;;;3583420;39;20676;-71
2021/04/13 01:07:49;;;;;;;3.35;2.25;;;3.60;80.80;;;;;;3582153;40;20036;-68
2021/04/13 01:10:17;;;;;;;5.20;2.50;;;3.60;81.20;;;;;;3582986;40;20064;-68
2021/04/13 01:12:51;;;;;;;4.95;2.42;;;3.50;81.40;;;;;;3583238;39;20044;-68
2021/04/13 01:15:19;;;;;;;4.03;2.60;;;3.50;81.50;;;;;;3582150;39;20062;-68
2021/04/13 01:17:45;;;;;;;4.63;2.90;;;3.50;81.80;;;;;;3583328;40;20037;-68
2021/04/13 01:20:36;;;;;;;3.95;2.65;;;3.50;81.10;;;;;;3583016;39;20024;-63
2021/04/13 01:23:07;;;;;;;6.70;2.85;;;3.50;81.00;;;;;;3582667;39;20036;-63
2021/04/13 01:25:42;;;;;;;4.03;2.50;;;3.40;81.20;;;;;;3581590;40;20031;-63
2021/04/13 01:28:19;;;;;;;4.50;2.92;;;3.40;81.50;;;;;;3582641;39;20027;-63
2021/04/13 01:31:11;;;;;;;4.38;2.78;;;3.40;81.80;;;;;;3581985;40;20098;-63
2021/04/13 01:33:54;;;;;;;4.20;2.72;;;3.40;81.60;;;;;;3583527;40;20996;-63
2021/04/13 01:36:31;;;;;;;4.97;3.08;;;3.50;81.30;;;;;;3580650;40;20036;-63
2021/04/13 01:39:06;;;;;;;7.03;3.60;;;3.40;81.60;;;;;;3582701;39;20051;-63
2021/04/13 01:42:02;;;;;;;5.25;3.15;;;3.40;82.10;;;;;;3582075;40;20032;-63
2021/04/13 01:44:30;;;;;;;5.88;3.80;;;3.40;82.20;;;;;;3580801;40;20555;-65
2021/04/13 01:46:57;;;;;;;5.75;3.63;;;3.50;82.30;;;;;;3580505;40;20024;-65
2021/04/13 01:49:23;;;;;;;5.53;3.80;;;3.50;82.30;;;;;;3582634;40;20697;-65
2021/04/13 01:51:51;;;;;;;6.35;3.75;;;3.50;82.20;;;;;;3583060;39;20024;-65
2021/04/13 01:54:17;;;;;;;4.55;3.67;;;3.50;82.10;;;;;;3582608;39;20123;-65
2021/04/13 01:57:04;;;;;;;6.95;3.95;;;3.50;81.90;;;;;;3582134;40;20040;-65
2021/04/13 01:59:44;;;;;;;6.85;3.75;;;3.50;82.00;;;;;;3581803;40;20016;-65
2021/04/13 02:02:18;;;;;;;7.20;4.05;;;3.50;82.00;;;;;;3584059;40;20541;-65
2021/04/13 02:04:49;;;;;;;6.75;4.75;;;3.40;81.80;;;;;;3581228;40;20148;-65
2021/04/13 02:10:25;;;;;;;6.90;4.95;;;3.40;81.90;;;;;;3581201;40;20135;-63
2021/04/13 02:12:55;;;;;;;6.38;4.45;;;3.40;81.90;;;;;;3581309;39;20045;-65
2021/04/13 02:15:43;;;;;;;7.10;4.40;;;3.40;81.90;;;;;;3580960;40;20052;-65
2021/04/13 02:18:33;;;;;;;7.45;5.05;;;3.40;81.80;;;;;;3582854;40;20028;-63
2021/04/13 02:20:59;;;;;;;8.02;5.22;;;3.40;81.90;;;;;;3581742;40;20036;-65
2021/04/13 02:23:31;;;;;;;7.30;5.03;;;3.40;82.50;;;;;;3582658;39;20897;-65
2021/04/13 02:26:00;;;;;;;7.43;5.55;;;3.40;81.80;;;;;;3581351;40;20032;-65
2021/04/13 02:28:27;;;;;;;7.40;5.10;;;3.40;82.20;;;;;;3582506;39;20071;-66
2021/04/13 02:30:54;;;;;;;7.35;4.40;;;3.40;82.00;;;;;;3579492;40;20028;-70
2021/04/13 02:33:28;;;;;;;6.28;4.63;;;3.30;82.20;;;;;;3582369;39;20024;-71
2021/04/13 02:35:54;;;;;;;7.65;5.32;;;3.30;82.20;;;;;;3581986;40;20024;-70
2021/04/13 02:38:29;;;;;;;6.13;4.53;;;3.30;82.50;;;;;;3581210;40;20064;-68
2021/04/13 02:41:09;;;;;;;8.52;5.07;;;3.30;82.20;;;;;;3581389;40;20083;-69
2021/04/13 02:43:41;;;;;;;7.18;4.60;;;3.30;82.50;;;;;;3581056;40;20028;-71
2021/04/13 02:46:15;;;;;;;10.10;4.82;;;3.20;82.20;;;;;;3580670;40;20043;-71
2021/04/13 02:48:49;;;;;;;8.35;4.88;;;3.20;82.30;;;;;;3582338;39;20079;-71
2021/04/13 02:51:16;;;;;;;6.63;4.72;;;3.20;82.40;;;;;;3581846;39;20083;-71
2021/04/13 02:54:01;;;;;;;7.45;5.07;;;3.20;82.60;;;;;;3581377;40;20023;-71
2021/04/13 02:56:32;;;;;;;7.78;5.13;;;3.20;82.70;;;;;;3580661;40;20077;-71
2021/04/13 02:59:29;;;;;;;6.88;4.90;;;3.10;82.60;;;;;;3580898;40;20032;-71
2021/04/13 03:02:09;;;;;;;8.80;5.03;;;3.20;82.40;;;;;;3577861;40;20041;-71
2021/04/13 03:04:43;;;;;;;7.38;4.78;;;3.20;82.30;;;;;;3582763;40;20143;-71
2021/04/13 03:07:24;;;;;;;12.50;5.30;;;3.10;81.80;;;;;;3581312;40;20044;-71
2021/04/13 03:09:53;;;;;;;7.55;4.90;;;3.00;82.50;;;;;;3580179;40;20089;-71
2021/04/13 03:12:20;;;;;;;10.80;6.28;;;3.00;82.30;;;;;;3581135;39;20073;-71
2021/04/13 03:14:50;;;;;;;8.85;5.32;;;2.90;82.30;;;;;;3581799;40;20094;-71
2021/04/13 03:17:23;;;;;;;9.00;5.55;;;2.90;82.60;;;;;;3580441;40;20032;-71
2021/04/13 03:19:51;;;;;;;8.95;5.30;;;2.90;82.60;;;;;;3581306;40;20128;-71
2021/04/13 03:22:19;;;;;;;12.43;6.22;;;3.00;82.60;;;;;;3583599;39;20055;-71
2021/04/13 03:24:48;;;;;;;7.47;5.57;;;3.00;82.90;;;;;;3584236;39;20649;-71
2021/04/13 03:27:20;;;;;;;7.47;5.90;;;3.00;83.00;;;;;;3581712;40;20720;-72
2021/04/13 03:29:51;;;;;;;8.95;6.22;;;3.00;82.80;;;;;;3584539;39;20040;-71
2021/04/13 03:32:21;;;;;;;12.85;7.50;;;3.00;83.10;;;;;;3582780;40;20024;-71
2021/04/13 03:34:47;;;;;;;15.63;6.85;;;3.00;83.40;;;;;;3584595;39;20099;-69
2021/04/13 03:37:14;;;;;;;11.05;7.05;;;3.00;83.20;;;;;;3583564;40;20032;-71
2021/04/13 03:39:43;;;;;;;9.77;6.78;;;3.10;83.50;;;;;;3582506;40;20137;-71
2021/04/13 03:42:21;;;;;;;12.57;7.10;;;3.10;83.50;;;;;;3583933;39;20035;-72
2021/04/13 03:44:50;;;;;;;10.15;6.90;;;3.10;83.70;;;;;;3584278;40;20032;-71
2021/04/13 03:47:27;;;;;;;10.57;6.43;;;3.10;83.70;;;;;;3582856;40;20090;-71
2021/04/13 03:49:53;;;;;;;9.15;6.15;;;3.10;83.40;;;;;;3584368;39;20064;-70
2021/04/13 03:52:25;;;;;;;9.90;6.28;;;3.10;83.00;;;;;;3587674;40;20055;-71
2021/04/13 03:54:51;;;;;;;12.15;7.65;;;3.00;83.00;;;;;;3586397;40;20072;-66
2021/04/13 03:57:32;;;;;;;14.30;7.53;;;3.00;82.70;;;;;;3581920;39;20035;-66
2021/04/13 03:59:59;;;;;;;13.25;7.10;;;3.10;83.00;;;;;;3581604;40;20039;-66
2021/04/13 04:02:24;;;;;;;12.45;7.75;;;3.00;83.00;;;;;;3581348;40;20497;-66
2021/04/13 04:05:11;;;;;;;15.80;7.65;;;3.00;82.90;;;;;;3583482;39;20040;-66
2021/04/13 04:07:53;;;;;;;15.10;8.77;;;3.00;82.90;;;;;;3581702;40;20842;-66
2021/04/13 04:10:44;;;;;;;18.00;9.82;;;3.00;83.10;;;;;;3583041;40;20032;-65
2021/04/13 04:13:20;;;;;;;12.98;8.02;;;3.00;83.00;;;;;;3581087;40;20798;-65
2021/04/13 04:15:52;;;;;;;13.82;8.02;;;3.00;83.30;;;;;;3581365;40;20110;-65
2021/04/13 04:18:36;;;;;;;13.25;8.40;;;3.00;83.30;;;;;;3580051;40;20494;-64
2021/04/13 04:21:39;;;;;;;13.63;8.38;;;3.00;83.50;;;;;;3581125;39;20121;-65
2021/04/13 04:24:09;;;;;;;14.60;9.20;;;3.00;83.30;;;;;;3577538;40;20043;-66
2021/04/13 04:26:57;;;;;;;17.17;9.27;;;3.10;83.50;;;;;;3583679;40;20032;-66
2021/04/13 04:29:28;;;;;;;17.85;9.02;;;3.00;83.50;;;;;;3582814;40;20028;-66
2021/04/13 04:31:54;;;;;;;16.92;10.07;;;3.00;83.40;;;;;;3584014;40;20051;-66
2021/04/13 04:34:20;;;;;;;16.92;9.68;;;3.10;83.20;;;;;;3583665;39;20073;-65
2021/04/13 04:36:51;;;;;;;14.27;9.15;;;3.10;83.40;;;;;;3586776;39;20056;-66
2021/04/13 04:39:27;;;;;;;14.13;9.98;;;3.20;83.60;;;;;;3583526;40;20118;-66
2021/04/13 04:41:56;;;;;;;21.58;10.35;;;3.20;82.60;;;;;;3586274;39;20338;-71
2021/04/13 04:44:25;;;;;;;18.20;10.73;;;3.20;82.90;;;;;;3587358;39;20405;-71
2021/04/13 04:46:58;;;;;;;14.13;9.45;;;3.20;83.00;;;;;;3584952;39;20046;-66
2021/04/13 04:49:24;;;;;;;15.55;8.73;;;3.30;82.80;;;;;;3582742;40;20314;-66
2021/04/13 04:51:52;;;;;;;15.43;7.97;;;3.30;82.50;;;;;;3584959;39;20201;-65
2021/04/13 04:54:20;;;;;;;15.43;8.50;;;3.30;82.20;;;;;;3584275;40;20428;-66
2021/04/13 04:56:46;;;;;;;16.15;9.18;;;3.30;82.40;;;;;;3586485;40;20032;-65
2021/04/13 04:59:12;;;;;;;15.68;9.20;;;3.40;82.30;;;;;;3581434;40;20138;-65
2021/04/13 05:01:38;;;;;;;14.43;8.45;;;3.40;82.00;;;;;;3584092;40;20413;-65
2021/04/13 05:04:04;;;;;;;16.67;9.10;;;3.40;81.90;;;;;;3583842;40;20043;-71
2021/04/13 05:06:29;;;;;;;19.88;9.77;;;3.50;81.70;;;;;;3581612;40;20028;-71
2021/04/13 05:08:55;;;;;;;17.58;9.40;;;3.50;81.90;;;;;;3584525;40;20109;-68
2021/04/13 05:11:23;;;;;;;12.85;8.82;;;3.60;81.70;;;;;;3584959;39;20646;-68
2021/04/13 05:13:50;;;;;;;15.32;8.70;;;3.70;81.70;;;;;;3584673;39;20032;-70
2021/04/13 05:16:16;;;;;;;13.85;7.93;;;3.70;81.40;;;;;;3584785;39;20611;-71
2021/04/13 05:18:41;;;;;;;12.93;8.10;;;3.80;80.60;;;;;;3584505;39;20032;-71
2021/04/13 05:21:08;;;;;;;14.43;8.15;;;3.90;81.00;;;;;;3584853;40;20121;-70
2021/04/13 05:23:34;;;;;;;14.05;7.97;;;4.00;80.70;;;;;;3586178;39;20168;-70
2021/04/13 05:26:00;;;;;;;12.85;7.43;;;4.00;80.00;;;;;;3582265;39;20025;-71
2021/04/13 05:28:26;;;;;;;14.85;7.65;;;4.20;79.70;;;;;;3583915;40;20043;-71
2021/04/13 05:30:52;;;;;;;13.73;7.97;;;4.20;79.00;;;;;;3587124;39;20138;-70
2021/04/13 05:33:20;;;;;;;11.15;7.05;;;4.30;79.00;;;;;;3581499;39;20721;-71
2021/04/13 05:35:46;;;;;;;11.52;7.00;;;4.40;78.40;;;;;;3583498;39;20049;-70
2021/04/13 05:38:15;;;;;;;12.45;7.45;;;4.50;78.60;;;;;;3585320;40;20039;-68
2021/04/13 05:40:41;;;;;;;12.63;7.32;;;4.70;78.20;;;;;;3581258;40;20043;-65
2021/04/13 05:43:09;;;;;;;10.60;6.70;;;4.90;77.30;;;;;;3582155;40;20059;-66
2021/04/13 05:45:37;;;;;;;9.95;6.93;;;5.20;75.90;;;;;;3585052;39;20050;-67
2021/04/13 05:48:03;;;;;;;11.45;6.60;;;5.60;74.30;;;;;;3581961;39;20028;-65
2021/04/13 05:50:38;;;;;;;13.10;6.78;;;6.00;72.60;;;;;;3582478;40;20041;-66
2021/04/13 05:53:04;;;;;;;10.52;6.38;;;6.20;71.20;;;;;;3581765;40;20044;-66
2021/04/13 05:55:31;;;;;;;10.48;6.32;;;6.40;69.50;;;;;;3578913;40;20036;-66
2021/04/13 05:58:16;;;;;;;11.52;7.38;;;6.60;69.20;;;;;;3580827;40;20040;-68
2021/04/13 06:00:44;;;;;;;9.80;6.03;;;6.90;68.50;;;;;;3584488;40;20032;-66
2021/04/13 06:03:13;;;;;;;8.30;6.00;;;7.20;67.20;;;;;;3582223;39;20670;-65
2021/04/13 06:05:39;;;;;;;9.57;6.20;;;7.50;66.20;;;;;;3580954;40;20141;-63
2021/04/13 06:08:05;;;;;;;7.75;5.68;;;7.80;65.00;;;;;;3582155;40;20037;-66
2021/04/13 06:10:31;;;;;;;8.73;5.55;;;8.30;62.70;;;;;;3581320;39;20094;-64
2021/04/13 06:13:00;;;;;;;7.00;5.25;;;8.80;60.60;;;;;;3582283;40;20407;-65
2021/04/13 06:15:28;;;;;;;6.57;5.30;;;9.20;59.60;;;;;;3581553;40;20032;-65
2021/04/13 06:17:54;;;;;;;7.38;4.95;;;9.50;58.20;;;;;;3584594;39;20025;-65
2021/04/13 06:20:22;;;;;;;8.90;5.20;;;9.50;58.60;;;;;;3581673;39;20035;-66
2021/04/13 06:22:49;;;;;;;7.03;4.90;;;9.60;58.00;;;;;;3581373;40;20080;-66
2021/04/13 06:25:23;;;;;;;22.52;10.90;;;9.80;57.30;;;;;;3582371;39;20806;-68
2021/04/13 06:27:50;;;;;;;34.13;16.33;;;10.10;56.60;;;;;;3580672;39;20068;-69
2021/04/13 06:30:17;;;;;;;10.77;5.22;;;10.30;56.30;;;;;;3583484;40;20084;-71
2021/04/13 06:32:44;;;;;;;9.15;5.38;;;10.50;55.50;;;;;;3581209;40;20025;-70
2021/04/13 06:35:10;;;;;;;7.80;5.25;;;10.50;55.00;;;;;;3584699;39;20031;-70
2021/04/13 06:37:40;;;;;;;8.35;5.07;;;10.50;55.50;;;;;;3584548;40;20311;-70
2021/04/13 06:40:08;;;;;;;10.10;5.47;;;10.50;55.50;;;;;;3583656;39;20926;-70
2021/04/13 06:43:11;;;;;;;9.65;5.03;;;10.60;55.40;;;;;;3584790;39;20781;-70
2021/04/13 06:45:59;;;;;;;7.43;4.90;;;10.80;54.70;;;;;;3583441;39;20040;-70
2021/04/13 06:48:51;;;;;;;8.63;4.90;;;11.00;54.40;;;;;;3585452;40;20032;-69
2021/04/13 06:51:32;;;;;;;8.55;4.88;;;11.30;54.10;;;;;;3584091;39;20837;-70
2021/04/13 06:54:10;;;;;;;6.22;4.80;;;11.50;53.30;;;;;;3583903;40;20028;-70
2021/04/13 06:57:25;;;;;;;7.50;4.82;;;11.50;53.80;;;;;;3580891;40;20530;-65
2021/04/13 07:00:14;;;;;;;5.80;4.22;;;11.90;52.80;;;;;;3544316;40;20048;-65
2021/04/13 07:02:58;;;;;;;8.90;4.57;;;12.10;52.40;;;;;;3579300;40;20037;-64
2021/04/13 07:05:34;;;;;;;8.05;4.88;;;11.50;53.00;;;;;;3580073;40;20102;-65
2021/04/13 07:08:35;;;;;;;7.15;4.53;;;11.10;55.10;;;;;;3579938;40;20031;-65
2021/04/13 07:11:32;;;;;;;6.95;4.88;;;10.80;56.40;;;;;;3580109;39;20028;-65
2021/04/13 07:14:25;;;;;;;6.70;4.00;;;10.60;56.80;;;;;;3578565;40;20076;-66
2021/04/13 07:17:00;;;;;;;9.15;4.90;;;10.60;57.30;;;;;;3580191;40;20048;-66
2021/04/13 07:19:37;;;;;;;7.28;4.35;;;10.80;57.30;;;;;;3581819;40;20070;-66
2021/04/13 07:22:22;;;;;;;8.23;4.75;;;11.30;55.50;;;;;;3580969;40;20649;-70
2021/04/13 07:25:05;;;;;;;6.68;4.15;;;11.70;54.00;;;;;;3583135;40;20036;-69
2021/04/13 07:27:54;;;;;;;8.55;5.15;;;11.90;52.50;;;;;;3580278;40;20126;-71
2021/04/13 07:30:38;;;;;;;6.15;3.85;;;11.90;53.40;;;;;;3581161;40;20141;-70
2021/04/13 07:33:06;;;;;;;7.00;4.32;;;11.80;53.50;;;;;;3582981;40;20029;-70
2021/04/13 07:35:39;;;;;;;8.45;4.00;;;11.80;54.00;;;;;;3583313;40;20576;-70
2021/04/13 07:38:21;;;;;;;12.10;4.60;;;11.80;54.30;;;;;;3580733;40;20376;-66
2021/04/13 07:40:50;;;;;;;11.55;4.80;;;11.70;54.60;;;;;;3581472;40;20039;-66
2021/04/13 07:43:28;;;;;;;11.85;4.43;;;11.50;55.00;;;;;;3579322;40;20037;-68
2021/04/13 07:46:19;;;;;;;7.32;4.50;;;11.40;55.20;;;;;;3584803;40;20075;-65
2021/04/13 07:49:05;;;;;;;6.25;4.40;;;11.00;56.00;;;;;;3582138;40;20071;-70
2021/04/13 07:51:35;;;;;;;9.93;3.77;;;10.80;57.80;;;;;;3585325;40;20157;-65
2021/04/13 07:54:27;;;;;;;12.02;4.18;;;10.50;57.40;;;;;;3581727;39;20036;-69
2021/04/13 07:57:00;;;;;;;6.50;3.45;;;10.30;58.30;;;;;;3582175;40;20044;-69
2021/04/13 07:59:33;;;;;;;4.05;2.97;;;10.00;58.70;;;;;;3581891;39;20058;-70
2021/04/13 08:01:59;;;;;;;4.70;2.70;;;10.00;59.20;;;;;;3582935;40;20025;-70
2021/04/13 08:04:28;;;;;;;7.80;3.40;;;10.00;60.10;;;;;;3582230;40;20061;-70
2021/04/13 08:07:12;;;;;;;7.65;3.10;;;9.90;58.90;;;;;;3583536;39;20037;-69
2021/04/13 08:09:53;;;;;;;9.80;3.15;;;9.90;59.40;;;;;;3580750;40;20029;-70
2021/04/13 08:12:27;;;;;;;6.43;2.72;;;10.00;60.20;;;;;;3582130;39;20746;-70
2021/04/13 08:14:56;;;;;;;8.32;2.83;;;10.20;60.20;;;;;;3584225;39;20040;-70
2021/04/13 08:17:27;;;;;;;7.00;3.20;;;11.00;60.40;;;;;;3583230;40;20024;-70
2021/04/13 08:20:11;;;;;;;6.70;3.20;;;11.50;56.60;;;;;;3587178;40;20032;-71
2021/04/13 08:22:54;;;;;;;11.23;3.50;;;11.60;55.50;;;;;;3585345;40;20039;-71
2021/04/13 08:25:49;;;;;;;6.88;3.10;;;11.60;55.40;;;;;;3577366;40;20424;-70
2021/04/13 08:28:41;;;;;;;6.15;3.53;;;11.30;55.40;;;;;;3584312;40;20071;-71
2021/04/13 08:34:27;;;;;;;8.50;3.25;;;10.70;57.00;;;;;;3586299;40;20170;-70
2021/04/13 08:37:47;;;;;;;12.07;3.28;;;10.60;57.40;;;;;;3585508;40;20032;-69
2021/04/13 08:40:13;;;;;;;7.30;3.08;;;10.40;58.60;;;;;;3575956;40;20818;-71
2021/04/13 08:43:00;;;;;;;8.45;3.20;;;10.40;58.60;;;;;;3585263;40;20480;-70
2021/04/13 08:45:41;;;;;;;7.78;2.90;;;10.40;57.90;;;;;;3585347;39;20044;-72
2021/04/13 08:48:21;;;;;;;10.52;4.30;;;10.80;57.60;;;;;;3584001;39;20049;-69
2021/04/13 08:50:49;;;;;;;9.73;2.38;;;11.10;57.60;;;;;;3585654;39;20032;-69
2021/04/13 08:53:35;;;;;;;7.85;3.08;;;11.50;56.40;;;;;;3584082;40;20028;-69
2021/04/13 08:56:30;;;;;;;5.68;2.65;;;12.40;53.60;;;;;;3583734;40;20051;-69
2021/04/13 08:59:00;;;;;;;5.22;2.20;;;12.80;52.00;;;;;;3582475;40;20418;-69
2021/04/13 09:01:26;;;;;;;6.50;2.83;;;12.70;52.70;;;;;;3584247;39;20024;-70
2021/04/13 09:03:52;;;;;;;8.85;2.80;;;12.40;52.90;;;;;;3582239;40;20447;-66
2021/04/13 09:06:17;;;;;;;9.73;2.83;;;12.20;52.60;;;;;;3582571;39;20294;-64
2021/04/13 09:09:08;;;;;;;7.68;2.45;;;11.90;54.20;;;;;;3583206;40;20117;-64
2021/04/13 09:11:49;;;;;;;5.75;2.67;;;11.70;54.00;;;;;;3582408;40;20659;-65
2021/04/13 09:14:38;;;;;;;7.30;2.65;;;11.50;54.10;;;;;;3582393;40;20037;-65
2021/04/13 09:17:08;;;;;;;7.70;2.40;;;11.20;55.10;;;;;;3584892;39;20914;-65
2021/04/13 09:19:38;;;;;;;4.85;2.25;;;11.00;56.50;;;;;;3581207;39;20032;-65
2021/04/13 09:22:45;;;;;;;9.13;2.63;;;11.00;56.20;;;;;;3582373;39;20042;-65
2021/04/13 09:25:15;;;;;;;6.15;2.30;;;10.80;56.50;;;;;;3582208;40;20426;-65
2021/04/13 09:27:59;;;;;;;8.65;3.60;;;11.00;55.40;;;;;;3581897;39;20043;-65
2021/04/13 09:30:31;;;;;;;6.93;2.80;;;11.40;56.40;;;;;;3584004;40;20052;-66
2021/04/13 09:33:20;;;;;;;10.45;2.85;;;11.60;55.60;;;;;;3580107;40;20274;-66
2021/04/13 09:35:58;;;;;;;7.13;2.33;;;11.50;55.20;;;;;;3581135;40;20096;-64
2021/04/13 09:38:33;;;;;;;15.48;4.18;;;11.90;56.20;;;;;;3582951;39;20098;-64
2021/04/13 09:41:37;;;;;;;11.77;3.47;;;12.20;52.70;;;;;;3581492;40;20623;-64
2021/04/13 09:44:32;;;;;;;6.78;3.03;;;12.40;54.00;;;;;;3583157;40;20025;-68
2021/04/13 09:47:23;;;;;;;5.47;2.78;;;12.80;53.60;;;;;;3581711;40;20037;-70
2021/04/13 09:50:16;;;;;;;10.73;2.55;;;13.20;52.90;;;;;;3582113;40;20056;-69
2021/04/13 09:53:02;;;;;;;9.23;2.13;;;13.20;50.00;;;;;;3583437;39;20059;-69
2021/04/13 09:55:43;;;;;;;8.55;2.00;;;12.80;50.30;;;;;;3584137;40;20024;-74
2021/04/13 09:58:46;;;;;;;8.55;2.75;;;13.30;50.80;;;;;;3581484;40;20039;-71
2021/04/13 10:01:15;;;;;;;5.32;1.92;;;14.00;49.20;;;;;;3586176;40;20665;-73
2021/04/13 10:04:04;;;;;;;5.53;2.20;;;14.10;48.10;;;;;;3582227;39;20025;-72
2021/04/13 10:06:35;;;;;;;6.30;1.90;;;13.80;48.30;;;;;;3582664;40;20396;-69
2021/04/13 10:09:25;;;;;;;5.95;2.30;;;13.60;50.30;;;;;;3582066;39;20025;-71
2021/04/13 10:12:08;;;;;;;5.68;2.15;;;13.70;50.10;;;;;;3583915;39;20027;-69
2021/04/13 10:14:52;;;;;;;6.45;2.50;;;13.60;50.10;;;;;;3582127;40;20028;-68
2021/04/13 10:17:44;;;;;;;9.75;2.20;;;13.30;49.80;;;;;;3584581;40;20606;-69
2021/04/13 10:20:31;;;;;;;5.43;1.75;;;13.00;51.30;;;;;;3581305;40;20415;-67
2021/04/13 10:23:32;;;;;;;3.92;2.00;;;12.70;50.00;;;;;;3582807;40;20035;-68
2021/04/13 10:26:18;;;;;;;5.47;2.00;;;12.40;52.30;;;;;;3581915;40;20146;-74
2021/04/13 10:28:56;;;;;;;;;;;12.40;52.00;;;;;;3583515;40;20028;-71
2021/04/13 10:31:32;;;;;;;;;;;12.50;52.20;;;;;;3583087;40;19944;-71
2021/04/13 10:34:20;;;;;;;6.60;1.73;;;12.40;52.80;;;;;;3580086;40;20285;-72
2021/04/13 10:37:09;;;;;;;10.43;2.00;;;12.40;52.70;;;;;;3584762;40;20028;-68
2021/04/13 10:39:41;;;;;;;5.68;1.77;;;12.40;51.60;;;;;;3584414;40;20032;-68
2021/04/13 10:42:35;;;;;;;11.38;1.77;;;12.50;51.20;;;;;;3581432;40;20032;-69
2021/04/13 10:45:19;;;;;;;7.68;1.77;;;12.70;49.10;;;;;;3584432;40;20067;-70
2021/04/13 10:48:09;;;;;;;7.30;2.00;;;12.80;49.20;;;;;;3582442;39;20031;-68
2021/04/13 10:51:08;;;;;;;6.50;1.88;;;12.90;49.40;;;;;;3583338;40;20043;-68
2021/04/13 10:53:58;;;;;;;7.40;1.60;;;12.80;47.50;;;;;;3580961;39;20114;-69
2021/04/13 10:56:42;;;;;;;3.30;1.23;;;12.50;49.80;;;;;;3581951;39;20706;-68
2021/04/13 10:59:33;;;;;;;8.40;2.15;;;12.30;49.20;;;;;;3581877;40;20032;-69
2021/04/13 11:02:29;;;;;;;4.25;1.50;;;12.30;50.70;;;;;;3582476;40;20794;-68
2021/04/13 11:05:20;;;;;;;6.75;1.65;;;12.10;49.20;;;;;;3582150;40;20044;-69
2021/04/13 11:08:16;;;;;;;5.32;1.83;;;12.00;51.10;;;;;;3582146;40;20028;-69
2021/04/13 11:11:19;;;;;;;3.65;1.58;;;12.20;52.20;;;;;;3583705;40;20052;-69
2021/04/13 11:14:06;;;;;;;3.00;1.20;;;12.50;50.50;;;;;;3581646;40;20044;-69
2021/04/13 11:16:41;;;;;;;4.30;1.70;;;12.60;50.00;;;;;;3583664;40;20040;-62
2021/04/13 11:19:31;;;;;;;4.38;1.15;;;12.60;49.60;;;;;;3583779;39;20059;-62
2021/04/13 11:22:11;;;;;;;2.67;1.20;;;12.70;49.10;;;;;;3585012;40;20092;-65
2021/04/13 11:24:44;;;;;;;8.45;1.67;;;12.60;48.50;;;;;;3584545;40;20554;-63
2021/04/13 11:27:52;;;;;;;4.78;1.50;;;12.50;47.50;;;;;;3583027;40;20507;-63
2021/04/13 11:30:48;;;;;;;2.83;1.20;;;12.40;48.00;;;;;;3582782;40;20401;-63
2021/04/13 11:33:45;;;;;;;4.82;1.40;;;12.10;50.00;;;;;;3581611;40;20033;-64
2021/04/13 11:36:29;;;;;;;5.82;1.60;;;12.10;50.00;;;;;;3581634;40;20562;-63
2021/04/13 11:39:20;;;;;;;3.65;1.65;;;12.20;50.70;;;;;;3584438;40;20033;-63
2021/04/13 11:42:08;;;;;;;7.07;1.25;;;12.40;50.60;;;;;;3581314;40;20199;-64
2021/04/13 11:45:01;;;;;;;4.10;1.38;;;12.40;49.10;;;;;;3583804;40;20600;-63
2021/04/13 11:47:41;;;;;;;3.67;1.25;;;12.30;50.30;;;;;;3584104;40;20036;-63
2021/04/13 11:50:37;;;;;;;5.88;1.60;;;12.30;49.60;;;;;;3581255;40;20130;-63
2021/04/13 11:53:08;;;;;;;4.93;1.35;;;12.40;50.20;;;;;;3581839;40;20040;-63
2021/04/13 11:55:44;;;;;;;5.38;1.35;;;12.50;49.80;;;;;;3577757;40;20041;-63
2021/04/13 11:58:24;;;;;;;6.88;1.50;;;12.60;47.90;;;;;;3583317;40;20778;-70
2021/04/13 12:01:16;;;;;;;7.97;1.40;;;12.70;47.30;;;;;;3583664;40;20356;-70
2021/04/13 12:03:58;;;;;;;4.07;1.27;;;12.90;46.90;;;;;;3584455;40;20037;-67
2021/04/13 12:07:04;;;;;;;2.13;1.08;;;13.00;47.50;;;;;;3580124;40;20032;-71
2021/04/13 12:09:59;;;;;;;6.30;1.30;;;12.90;45.10;;;;;;3584187;39;20048;-68
2021/04/13 12:12:34;;;;;;;4.28;1.15;;;12.80;46.90;;;;;;3582367;40;20039;-69
2021/04/13 12:15:03;;;;;;;5.75;2.63;;;12.80;46.40;;;;;;3584482;40;20056;-70
2021/04/13 12:17:49;;;;;;;8.55;2.70;;;12.80;47.20;;;;;;3582607;40;20039;-70
2021/04/13 12:22:58;;;;;;;6.18;1.25;;;12.60;47.50;;;;;;3583298;40;20048;-70
2021/04/13 12:25:51;;;;;;;3.28;1.10;;;12.60;46.80;;;;;;3585606;39;20032;-70
2021/04/13 12:28:29;;;;;;;7.90;1.40;;;12.60;46.90;;;;;;3583142;39;20157;-70
2021/04/13 12:31:04;;;;;;;3.30;1.05;;;12.50;46.80;;;;;;3586046;40;20064;-68
2021/04/13 12:33:29;;;;;;;4.32;0.95;;;12.50;47.80;;;;;;3582687;40;20054;-70
2021/04/13 12:36:07;;;;;;;2.83;1.02;;;12.40;48.50;;;;;;3581458;40;20765;-70
2021/04/13 12:38:42;;;;;;;5.28;1.15;;;12.50;48.70;;;;;;3584930;40;20118;-70
2021/04/13 12:41:18;;;;;;;7.40;1.20;;;12.60;48.20;;;;;;3585563;39;20283;-69
2021/04/13 12:43:45;;;;;;;8.13;1.20;;;12.70;48.00;;;;;;3588043;39;20060;-71
2021/04/13 12:46:38;;;;;;;7.20;1.48;;;12.70;45.50;;;;;;3583802;39;20035;-71
2021/04/13 12:49:13;;;;;;;3.33;0.90;;;12.60;47.20;;;;;;3583372;40;20025;-71
2021/04/13 12:51:55;;;;;;;6.30;1.23;;;12.50;48.10;;;;;;3584696;40;20032;-71
2021/04/13 12:54:39;;;;;;;5.57;1.38;;;12.40;48.50;;;;;;3584205;40;20065;-71
2021/04/13 12:57:18;;;;;;;6.60;1.38;;;12.30;48.40;;;;;;3581503;40;20041;-71
2021/04/13 12:59:44;;;;;;;6.13;1.30;;;12.00;49.10;;;;;;3583413;39;20670;-71
2021/04/13 13:02:38;;;;;;;6.53;1.20;;;12.00;51.20;;;;;;3582591;40;20044;-71
2021/04/13 13:05:32;;;;;;;4.90;1.20;;;12.00;50.60;;;;;;3585135;40;20181;-69
2021/04/13 13:08:00;;;;;;;2.58;1.17;;;12.00;49.90;;;;;;3587631;40;20107;-71
2021/04/13 13:10:31;;;;;;;4.03;1.35;;;12.00;49.60;;;;;;3584276;39;20694;-70
2021/04/13 13:13:05;;;;;;;7.53;1.95;;;12.10;49.90;;;;;;3587317;39;20044;-71
2021/04/13 13:15:36;;;;;;;5.50;1.17;;;12.10;49.00;;;;;;3584696;40;20050;-71
2021/04/13 13:18:17;;;;;;;4.60;1.70;;;12.00;47.60;;;;;;3580739;40;20044;-71
2021/04/13 13:20:43;;;;;;;6.85;1.50;;;11.90;49.20;;;;;;3584704;40;20097;-70
2021/04/13 13:23:23;;;;;;;3.05;1.58;;;11.80;49.10;;;;;;3583377;39;20021;-71
2021/04/13 13:25:50;;;;;;;7.35;2.65;;;11.60;48.20;;;;;;3580200;40;20040;-71
2021/04/13 13:28:22;;;;;;;11.95;4.75;;;11.60;48.50;;;;;;3583867;39;20036;-70
2021/04/13 13:30:50;;;;;;;6.53;3.47;;;11.60;49.50;;;;;;3580393;40;20081;-70
2021/04/13 13:33:17;;;;;;;5.47;2.03;;;11.70;50.70;;;;;;3580482;40;20474;-71
2021/04/13 13:35:43;;;;;;;3.85;1.02;;;11.90;49.50;;;;;;3586196;39;20036;-71
2021/04/13 13:38:14;;;;;;;5.78;1.30;;;11.90;50.30;;;;;;3586557;39;20036;-71
2021/04/13 13:40:42;;;;;;;13.52;5.70;;;12.00;48.70;;;;;;3584081;39;20034;-70
2021/04/13 13:43:11;;;;;;;5.15;2.05;;;12.00;47.40;;;;;;3586389;39;20028;-71
2021/04/13 13:45:40;;;;;;;13.25;4.63;;;12.00;48.20;;;;;;3584777;40;20063;-71
2021/04/13 13:48:17;;;;;;;4.72;1.42;;;12.10;46.30;;;;;;3580834;39;20773;-71
2021/04/13 13:50:44;;;;;;;11.45;3.42;;;12.20;47.10;;;;;;3585388;40;20023;-70